createdAt,value
2023-05-25T00:00:18.914Z,11.42
2023-05-25T00:01:03.176Z,11.63
2023-05-25T00:01:49.009Z,11.63
2023-05-25T00:02:30.889Z,11.45
2023-05-25T00:03:12.746Z,11.51
2023-05-25T00:03:55.361Z,11.59
2023-05-25T00:04:38.443Z,11.50
2023-05-25T00:05:20.962Z,11.57
2023-05-25T00:06:02.631Z,11.61
2023-05-25T00:06:45.476Z,11.61
2023-05-25T00:07:27.113Z,11.53
2023-05-25T00:08:08.793Z,11.47
2023-05-25T00:08:51.583Z,11.58
2023-05-25T00:09:33.303Z,11.54
2023-05-25T00:10:14.991Z,11.41
2023-05-25T00:10:56.744Z,11.64
2023-05-25T00:11:38.903Z,11.51
2023-05-25T00:12:20.890Z,11.58
2023-05-25T00:13:02.714Z,11.10
2023-05-25T00:13:44.338Z,11.44
2023-05-25T00:14:25.982Z,11.55
2023-05-25T00:15:08.198Z,11.58
2023-05-25T00:15:50.468Z,11.53
2023-05-25T00:16:37.365Z,11.50
2023-05-25T00:17:19.086Z,11.38
2023-05-25T00:18:00.891Z,11.45
2023-05-25T00:18:43.277Z,11.58
2023-05-25T00:19:25.155Z,11.51
2023-05-25T00:20:09.052Z,11.51
2023-05-25T00:20:54.158Z,11.55
2023-05-25T00:21:38.087Z,11.48
2023-05-25T00:22:20.543Z,11.49
2023-05-25T00:23:05.277Z,11.51
2023-05-25T00:23:47.038Z,11.36
2023-05-25T00:24:30.726Z,11.51
2023-05-25T00:25:12.695Z,11.36
2023-05-25T00:25:54.295Z,11.14
2023-05-25T00:26:36.190Z,11.55
2023-05-25T00:27:17.874Z,11.42
2023-05-25T00:27:59.564Z,11.41
2023-05-25T00:28:41.242Z,11.53
2023-05-25T00:29:24.663Z,11.41
2023-05-25T00:30:07.099Z,11.59
2023-05-25T00:30:49.093Z,11.57
2023-05-25T00:31:33.026Z,11.39
2023-05-25T00:32:14.926Z,10.83
2023-05-25T00:32:56.688Z,11.50
2023-05-25T00:33:38.419Z,11.50
2023-05-25T00:34:20.817Z,11.43
2023-05-25T00:35:03.918Z,11.45
2023-05-25T00:35:46.711Z,11.58
2023-05-25T00:36:30.471Z,11.45
2023-05-25T00:37:12.193Z,11.37
2023-05-25T00:37:53.834Z,11.53
2023-05-25T00:38:35.584Z,11.52
2023-05-25T00:39:19.464Z,11.40
2023-05-25T00:40:01.254Z,11.49
2023-05-25T00:40:43.269Z,11.50
2023-05-25T00:41:27.104Z,11.42
2023-05-25T00:42:08.915Z,11.18
2023-05-25T00:42:51.112Z,11.36
2023-05-25T00:43:32.809Z,11.45
2023-05-25T00:44:15.868Z,11.37
2023-05-25T00:44:57.704Z,11.38
2023-05-25T00:45:39.689Z,11.41
2023-05-25T00:46:22.378Z,11.41
2023-05-25T00:47:04.911Z,11.26
2023-05-25T00:47:51.852Z,11.41
2023-05-25T00:48:33.702Z,11.41
2023-05-25T00:49:17.035Z,11.42
2023-05-25T00:49:58.747Z,11.38
2023-05-25T00:50:43.413Z,11.41
2023-05-25T00:51:26.371Z,11.39
2023-05-25T00:52:08.463Z,11.37
2023-05-25T00:52:50.315Z,11.39
2023-05-25T00:53:33.700Z,11.15
2023-05-25T00:54:16.378Z,11.28
2023-05-25T00:55:00.979Z,11.27
2023-05-25T00:56:07.484Z,11.35
2023-05-25T00:56:56.393Z,11.34
2023-05-25T00:57:41.519Z,11.20
2023-05-25T00:58:26.861Z,11.34
2023-05-25T00:59:11.904Z,11.31
2023-05-25T00:59:55.670Z,10.96
2023-05-25T01:00:38.697Z,11.24
2023-05-25T01:01:22.884Z,11.32
2023-05-25T01:02:08.278Z,11.25
2023-05-25T01:02:52.953Z,11.28
2023-05-25T01:03:38.260Z,11.39
2023-05-25T01:04:21.587Z,11.38
2023-05-25T01:05:06.510Z,11.37
2023-05-25T01:05:51.344Z,11.36
2023-05-25T01:06:34.661Z,11.35
2023-05-25T01:07:19.190Z,11.34
2023-05-25T01:08:03.590Z,11.24
2023-05-25T01:08:53.788Z,11.21
2023-05-25T01:09:39.068Z,11.31
2023-05-25T01:10:22.946Z,11.30
2023-05-25T01:11:06.533Z,11.21
2023-05-25T01:11:50.358Z,11.11
2023-05-25T01:12:36.695Z,11.27
2023-05-25T01:13:20.231Z,11.22
2023-05-25T01:14:02.727Z,11.19
2023-05-25T01:14:46.770Z,11.25
2023-05-25T01:15:30.334Z,11.14
2023-05-25T01:16:13.061Z,11.24
2023-05-25T01:16:59.002Z,11.02
2023-05-25T01:17:41.331Z,11.06
2023-05-25T01:18:23.056Z,11.18
2023-05-25T01:19:04.819Z,11.15
2023-05-25T01:20:01.608Z,11.14
2023-05-25T01:21:13.381Z,11.12
2023-05-25T01:21:59.401Z,11.01
2023-05-25T01:22:51.396Z,11.07
2023-05-25T01:23:36.708Z,11.04
2023-05-25T01:24:40.724Z,11.10
2023-05-25T01:25:27.068Z,11.12
2023-05-25T01:26:15.268Z,11.06
2023-05-25T01:27:32.524Z,10.95
2023-05-25T01:28:25.495Z,11.08
2023-05-25T01:29:07.992Z,10.96
2023-05-25T01:29:49.665Z,10.92
2023-05-25T01:30:32.873Z,10.94
2023-05-25T01:31:16.013Z,11.02
2023-05-25T01:31:58.585Z,10.98
2023-05-25T01:32:43.435Z,10.93
2023-05-25T01:33:26.318Z,10.92
2023-05-25T01:34:09.288Z,10.97
2023-05-25T01:34:52.384Z,10.89
2023-05-25T01:35:35.355Z,10.99
2023-05-25T01:36:18.658Z,10.89
2023-05-25T01:37:00.775Z,10.90
2023-05-25T01:37:46.832Z,10.94
2023-05-25T01:38:28.545Z,10.87
2023-05-25T01:39:11.090Z,10.97
2023-05-25T01:39:53.135Z,10.88
2023-05-25T01:40:34.790Z,11.05
2023-05-25T01:41:17.562Z,10.84
2023-05-25T01:41:59.558Z,10.94
2023-05-25T01:42:41.954Z,11.06
2023-05-25T01:43:23.958Z,11.06
2023-05-25T01:44:07.578Z,11.06
2023-05-25T01:44:49.714Z,11.03
2023-05-25T01:45:32.967Z,11.00
2023-05-25T01:46:23.290Z,11.02
2023-05-25T01:47:17.031Z,11.00
2023-05-25T01:48:19.703Z,11.00
2023-05-25T01:49:12.706Z,10.98
2023-05-25T01:50:06.458Z,10.83
2023-05-25T01:50:51.148Z,10.95
2023-05-25T01:51:43.876Z,10.78
2023-05-25T01:52:32.411Z,10.92
2023-05-25T01:53:26.475Z,10.97
2023-05-25T01:54:16.931Z,10.97
2023-05-25T01:55:06.349Z,10.88
2023-05-25T01:56:08.449Z,10.92
2023-05-25T01:56:52.487Z,11.00
2023-05-25T01:57:37.505Z,10.94
2023-05-25T01:58:22.653Z,10.83
2023-05-25T01:59:07.942Z,10.83
2023-05-25T01:59:52.459Z,10.97
2023-05-25T02:00:35.795Z,11.01
2023-05-25T02:01:18.534Z,10.97
2023-05-25T02:02:01.894Z,11.03
2023-05-25T02:02:46.961Z,11.02
2023-05-25T02:03:29.035Z,10.92
2023-05-25T02:04:11.388Z,10.80
2023-05-25T02:04:56.920Z,10.88
2023-05-25T02:05:42.305Z,10.91
2023-05-25T02:06:24.200Z,11.03
2023-05-25T02:07:07.188Z,11.03
2023-05-25T02:07:48.905Z,10.98
2023-05-25T02:08:30.682Z,10.91
2023-05-25T02:09:14.885Z,10.89
2023-05-25T02:09:56.646Z,10.88
2023-05-25T02:10:38.278Z,10.94
2023-05-25T02:11:20.043Z,10.99
2023-05-25T02:12:02.437Z,10.90
2023-05-25T02:12:44.298Z,10.53
2023-05-25T02:13:25.958Z,11.03
2023-05-25T02:14:09.038Z,11.04
2023-05-25T02:14:50.949Z,10.86
2023-05-25T02:15:33.867Z,11.03
2023-05-25T02:16:15.683Z,11.00
2023-05-25T02:17:02.448Z,10.98
2023-05-25T02:17:44.559Z,10.99
2023-05-25T02:18:26.410Z,10.87
2023-05-25T02:19:09.170Z,10.98
2023-05-25T02:19:53.157Z,10.84
2023-05-25T02:20:36.939Z,10.98
2023-05-25T02:21:18.846Z,10.98
2023-05-25T02:22:00.569Z,10.66
2023-05-25T02:22:42.244Z,10.85
2023-05-25T02:23:23.942Z,10.98
2023-05-25T02:24:06.498Z,10.85
2023-05-25T02:24:48.299Z,11.02
2023-05-25T02:25:30.038Z,11.01
2023-05-25T02:26:11.754Z,10.83
2023-05-25T02:26:53.566Z,10.97
2023-05-25T02:27:36.286Z,10.77
2023-05-25T02:28:18.132Z,10.93
2023-05-25T02:29:01.872Z,10.91
2023-05-25T02:29:43.549Z,10.85
2023-05-25T02:30:25.371Z,10.88
2023-05-25T02:31:09.868Z,10.87
2023-05-25T02:31:51.772Z,10.87
2023-05-25T02:32:33.786Z,10.72
2023-05-25T02:33:16.811Z,10.74
2023-05-25T02:33:58.943Z,10.85
2023-05-25T02:34:41.361Z,10.87
2023-05-25T02:35:23.178Z,10.71
2023-05-25T02:36:05.887Z,10.87
2023-05-25T02:36:47.619Z,10.86
2023-05-25T02:37:29.432Z,10.73
2023-05-25T02:38:11.166Z,10.85
2023-05-25T02:38:52.899Z,10.73
2023-05-25T02:39:34.710Z,10.80
2023-05-25T02:40:18.607Z,10.68
2023-05-25T02:41:00.411Z,10.74
2023-05-25T02:41:42.170Z,10.71
2023-05-25T02:42:23.846Z,10.38
2023-05-25T02:43:05.686Z,10.71
2023-05-25T02:43:47.972Z,10.70
2023-05-25T02:44:31.321Z,10.69
2023-05-25T02:45:13.073Z,9.75
2023-05-25T02:45:55.859Z,10.67
2023-05-25T02:46:38.392Z,10.54
2023-05-25T02:47:21.754Z,10.67
2023-05-25T02:48:03.655Z,10.64
2023-05-25T02:48:47.660Z,10.66
2023-05-25T02:49:30.030Z,10.66
2023-05-25T02:50:11.773Z,10.69
2023-05-25T02:50:58.634Z,10.52
2023-05-25T02:51:40.517Z,10.58
2023-05-25T02:52:22.659Z,10.66
2023-05-25T02:53:04.519Z,10.70
2023-05-25T02:53:46.367Z,10.23
2023-05-25T02:54:28.006Z,10.63
2023-05-25T02:55:18.656Z,10.60
2023-05-25T02:56:02.148Z,10.60
2023-05-25T02:56:47.076Z,10.66
2023-05-25T02:57:32.601Z,10.63
2023-05-25T02:58:15.281Z,10.27
2023-05-25T02:59:15.994Z,10.55
2023-05-25T02:59:57.716Z,10.47
2023-05-25T03:00:39.458Z,10.50
2023-05-25T03:01:21.416Z,10.43
2023-05-25T03:02:06.966Z,10.34
2023-05-25T03:02:48.996Z,10.46
2023-05-25T03:03:33.328Z,10.46
2023-05-25T03:04:15.074Z,10.46
2023-05-25T03:04:58.156Z,10.42
2023-05-25T03:05:40.054Z,10.33
2023-05-25T03:06:23.025Z,10.39
2023-05-25T03:07:07.867Z,10.09
2023-05-25T03:07:49.480Z,10.49
2023-05-25T03:08:31.451Z,10.46
2023-05-25T03:09:14.629Z,9.94
2023-05-25T03:09:56.698Z,10.29
2023-05-25T03:10:38.844Z,10.51
2023-05-25T03:11:23.326Z,10.51
2023-05-25T03:12:05.590Z,10.41
2023-05-25T03:12:47.263Z,10.57
2023-05-25T03:13:28.925Z,10.59
2023-05-25T03:14:11.201Z,10.52
2023-05-25T03:14:53.747Z,10.61
2023-05-25T03:15:36.666Z,10.63
2023-05-25T03:16:19.999Z,10.18
2023-05-25T03:17:03.223Z,10.66
2023-05-25T03:17:45.025Z,10.56
2023-05-25T03:18:27.731Z,10.62
2023-05-25T03:19:10.910Z,10.57
2023-05-25T03:19:53.208Z,10.57
2023-05-25T03:20:35.157Z,10.61
2023-05-25T03:21:17.644Z,10.66
2023-05-25T03:21:59.737Z,10.53
2023-05-25T03:23:00.051Z,10.64
2023-05-25T03:23:41.756Z,10.62
2023-05-25T03:24:23.823Z,10.48
2023-05-25T03:25:06.038Z,10.41
2023-05-25T03:25:47.708Z,10.51
2023-05-25T03:26:30.659Z,10.26
2023-05-25T03:27:12.407Z,10.45
2023-05-25T03:27:54.448Z,10.40
2023-05-25T03:28:36.130Z,10.43
2023-05-25T03:29:17.836Z,10.33
2023-05-25T03:29:59.569Z,10.40
2023-05-25T03:30:45.148Z,10.39
2023-05-25T03:31:27.204Z,10.38
2023-05-25T03:32:09.368Z,10.34
2023-05-25T03:32:52.520Z,10.37
2023-05-25T03:33:34.380Z,9.96
2023-05-25T03:34:16.095Z,10.20
2023-05-25T03:34:58.246Z,10.30
2023-05-25T03:35:41.548Z,10.26
2023-05-25T03:36:27.410Z,10.22
2023-05-25T03:37:09.066Z,10.26
2023-05-25T03:37:50.759Z,10.23
2023-05-25T03:38:32.719Z,10.09
2023-05-25T03:39:14.675Z,10.21
2023-05-25T03:39:56.449Z,10.07
2023-05-25T03:40:38.751Z,10.24
2023-05-25T03:41:20.789Z,10.19
2023-05-25T03:42:06.399Z,10.22
2023-05-25T03:42:48.112Z,10.36
2023-05-25T03:43:29.894Z,10.37
2023-05-25T03:44:11.772Z,10.34
2023-05-25T03:44:53.542Z,10.19
2023-05-25T03:45:35.283Z,10.40
2023-05-25T03:46:17.176Z,10.32
2023-05-25T03:46:59.011Z,10.30
2023-05-25T03:47:41.369Z,10.25
2023-05-25T03:48:23.464Z,10.23
2023-05-25T03:49:05.795Z,10.26
2023-05-25T03:49:47.433Z,10.20
2023-05-25T03:50:29.072Z,10.04
2023-05-25T03:51:11.978Z,10.19
2023-05-25T03:51:53.819Z,10.01
2023-05-25T03:52:36.148Z,9.69
2023-05-25T03:53:18.099Z,10.11
2023-05-25T03:53:59.986Z,10.00
2023-05-25T03:54:41.622Z,10.07
2023-05-25T03:55:24.116Z,9.98
2023-05-25T03:56:06.591Z,10.02
2023-05-25T03:56:48.245Z,10.01
2023-05-25T03:57:29.885Z,9.99
2023-05-25T03:58:11.544Z,9.97
2023-05-25T03:58:53.240Z,9.60
2023-05-25T03:59:35.093Z,9.91
2023-05-25T04:00:16.966Z,9.95
2023-05-25T04:00:58.761Z,9.92
2023-05-25T04:01:40.447Z,9.82
2023-05-25T04:02:22.296Z,9.87
2023-05-25T04:03:04.246Z,9.73
2023-05-25T04:03:46.142Z,9.53
2023-05-25T04:04:28.287Z,9.65
2023-05-25T04:05:10.001Z,9.76
2023-05-25T04:05:51.645Z,9.70
2023-05-25T04:06:33.933Z,9.67
2023-05-25T04:07:15.825Z,9.84
2023-05-25T04:07:57.680Z,9.85
2023-05-25T04:08:41.000Z,9.86
2023-05-25T04:09:22.833Z,9.95
2023-05-25T04:10:05.547Z,9.87
2023-05-25T04:10:47.430Z,9.94
2023-05-25T04:11:29.249Z,10.01
2023-05-25T04:12:10.912Z,10.01
2023-05-25T04:12:52.605Z,10.04
2023-05-25T04:13:36.348Z,9.99
2023-05-25T04:14:21.089Z,10.10
2023-05-25T04:15:05.397Z,10.18
2023-05-25T04:15:50.658Z,10.28
2023-05-25T04:16:35.965Z,10.31
2023-05-25T04:17:19.371Z,10.24
2023-05-25T04:18:02.959Z,10.37
2023-05-25T04:18:44.751Z,10.28
2023-05-25T04:19:26.466Z,10.37
2023-05-25T04:20:09.442Z,10.41
2023-05-25T04:20:51.559Z,10.41
2023-05-25T04:21:36.698Z,10.50
2023-05-25T04:22:19.052Z,10.24
2023-05-25T04:23:02.447Z,10.46
2023-05-25T04:23:44.381Z,10.48
2023-05-25T04:24:26.298Z,10.50
2023-05-25T04:25:08.766Z,10.50
2023-05-25T04:25:51.240Z,10.56
2023-05-25T04:26:33.624Z,10.49
2023-05-25T04:27:17.400Z,10.59
2023-05-25T04:27:59.084Z,10.51
2023-05-25T04:29:01.857Z,10.32
2023-05-25T04:29:58.509Z,10.61
2023-05-25T04:31:13.455Z,10.67
2023-05-25T04:32:17.817Z,10.70
2023-05-25T04:33:04.193Z,10.73
2023-05-25T04:34:06.504Z,10.69
2023-05-25T04:34:55.104Z,10.74
2023-05-25T04:35:40.787Z,10.68
2023-05-25T04:36:22.977Z,10.60
2023-05-25T04:37:05.650Z,10.76
2023-05-25T04:37:48.345Z,10.73
2023-05-25T04:38:30.817Z,10.84
2023-05-25T04:39:14.153Z,10.83
2023-05-25T04:40:01.739Z,10.84
2023-05-25T04:40:46.369Z,10.73
2023-05-25T04:41:29.808Z,10.88
2023-05-25T04:42:14.570Z,10.91
2023-05-25T04:42:57.117Z,10.88
2023-05-25T04:43:46.555Z,10.87
2023-05-25T04:44:39.965Z,10.89
2023-05-25T04:45:24.709Z,11.00
2023-05-25T04:46:08.708Z,10.97
2023-05-25T04:46:50.484Z,10.96
2023-05-25T04:47:41.121Z,11.05
2023-05-25T04:48:24.554Z,11.03
2023-05-25T04:49:08.557Z,10.99
2023-05-25T04:49:51.060Z,11.08
2023-05-25T04:50:32.776Z,11.10
2023-05-25T04:51:14.656Z,11.14
2023-05-25T04:51:56.434Z,11.19
2023-05-25T04:52:39.254Z,11.11
2023-05-25T04:53:21.263Z,11.14
2023-05-25T04:54:03.281Z,11.12
2023-05-25T04:54:45.016Z,11.01
2023-05-25T04:55:27.941Z,11.12
2023-05-25T04:56:09.651Z,11.07
2023-05-25T04:56:51.498Z,11.14
2023-05-25T04:57:33.190Z,11.16
2023-05-25T04:58:15.433Z,11.18
2023-05-25T04:58:57.456Z,11.22
2023-05-25T04:59:39.565Z,11.13
2023-05-25T05:00:21.979Z,11.19
2023-05-25T05:01:05.177Z,11.28
2023-05-25T05:01:47.386Z,11.41
2023-05-25T05:02:31.779Z,11.46
2023-05-25T05:03:14.505Z,11.63
2023-05-25T05:03:57.419Z,11.59
2023-05-25T05:04:41.314Z,11.77
2023-05-25T05:05:23.641Z,11.78
2023-05-25T05:06:06.338Z,11.84
2023-05-25T05:06:48.500Z,12.02
2023-05-25T05:07:34.070Z,12.20
2023-05-25T05:08:15.889Z,12.31
2023-05-25T05:08:57.557Z,12.42
2023-05-25T05:09:39.284Z,12.54
2023-05-25T05:10:21.003Z,12.54
2023-05-25T05:11:07.823Z,12.51
2023-05-25T05:11:49.592Z,12.79
2023-05-25T05:12:32.750Z,13.01
2023-05-25T05:13:16.157Z,13.01
2023-05-25T05:13:59.046Z,13.01
2023-05-25T05:14:41.147Z,13.21
2023-05-25T05:15:23.174Z,12.97
2023-05-25T05:16:05.975Z,13.03
2023-05-25T05:16:48.272Z,13.23
2023-05-25T05:17:31.121Z,13.16
2023-05-25T05:18:14.126Z,13.22
2023-05-25T05:18:56.195Z,13.33
2023-05-25T05:19:37.897Z,13.47
2023-05-25T05:20:21.646Z,13.56
2023-05-25T05:21:03.488Z,13.59
2023-05-25T05:21:45.723Z,13.61
2023-05-25T05:22:27.684Z,13.63
2023-05-25T05:23:11.398Z,13.76
2023-05-25T05:23:53.139Z,13.80
2023-05-25T05:24:34.909Z,13.92
2023-05-25T05:25:16.646Z,13.92
2023-05-25T05:25:58.358Z,13.76
2023-05-25T05:26:55.581Z,13.93
2023-05-25T05:27:42.752Z,13.84
2023-05-25T05:28:31.696Z,13.95
2023-05-25T05:29:13.534Z,14.00
2023-05-25T05:29:55.420Z,14.02
2023-05-25T05:30:37.530Z,14.00
2023-05-25T05:31:19.732Z,14.08
2023-05-25T05:32:02.029Z,14.07
2023-05-25T05:32:46.023Z,14.00
2023-05-25T05:33:28.678Z,14.00
2023-05-25T05:34:10.574Z,13.91
2023-05-25T05:34:52.292Z,13.55
2023-05-25T05:35:47.393Z,13.85
2023-05-25T05:36:45.301Z,13.88
2023-05-25T05:37:34.781Z,13.87
2023-05-25T05:38:16.614Z,13.97
2023-05-25T05:38:58.301Z,13.94
2023-05-25T05:39:40.001Z,14.00
2023-05-25T05:40:21.680Z,14.01
2023-05-25T05:41:03.386Z,13.96
2023-05-25T05:41:45.437Z,13.85
2023-05-25T05:42:28.016Z,13.91
2023-05-25T05:43:13.508Z,13.75
2023-05-25T05:43:55.296Z,13.85
2023-05-25T05:44:37.211Z,13.72
2023-05-25T05:45:18.879Z,13.81
2023-05-25T05:46:00.625Z,13.83
2023-05-25T05:46:42.780Z,13.82
2023-05-25T05:47:24.748Z,13.72
2023-05-25T05:48:10.041Z,13.74
2023-05-25T05:48:54.674Z,13.62
2023-05-25T05:49:38.254Z,13.55
2023-05-25T05:50:20.296Z,13.44
2023-05-25T05:51:02.705Z,13.51
2023-05-25T05:51:44.567Z,13.51
2023-05-25T05:52:26.257Z,13.46
2023-05-25T05:53:09.741Z,13.47
2023-05-25T05:53:51.493Z,13.41
2023-05-25T05:54:33.301Z,13.32
2023-05-25T05:55:20.991Z,13.46
2023-05-25T05:56:05.838Z,13.40
2023-05-25T05:56:48.061Z,13.52
2023-05-25T05:57:29.783Z,13.48
2023-05-25T05:58:11.485Z,13.52
2023-05-25T05:58:54.505Z,13.64
2023-05-25T05:59:36.278Z,13.63
2023-05-25T06:00:18.524Z,13.71
2023-05-25T06:01:01.425Z,13.63
2023-05-25T06:01:43.591Z,13.76
2023-05-25T06:02:25.991Z,13.75
2023-05-25T06:03:08.004Z,13.81
2023-05-25T06:03:50.235Z,13.82
2023-05-25T06:04:32.699Z,13.77
2023-05-25T06:05:14.718Z,13.80
2023-05-25T06:05:57.323Z,13.86
2023-05-25T06:06:41.970Z,13.88
2023-05-25T06:07:23.699Z,13.84
2023-05-25T06:08:06.184Z,13.83
2023-05-25T06:08:51.101Z,13.71
2023-05-25T06:09:32.859Z,13.74
2023-05-25T06:10:15.238Z,13.38
2023-05-25T06:10:58.448Z,13.65
2023-05-25T06:11:40.275Z,13.50
2023-05-25T06:12:22.930Z,13.61
2023-05-25T06:13:04.791Z,13.55
2023-05-25T06:13:46.831Z,13.68
2023-05-25T06:14:29.684Z,13.66
2023-05-25T06:15:14.697Z,13.67
2023-05-25T06:15:57.015Z,13.61
2023-05-25T06:16:40.070Z,13.71
2023-05-25T06:17:23.425Z,13.50
2023-05-25T06:18:09.783Z,13.83
2023-05-25T06:18:51.662Z,13.72
2023-05-25T06:19:33.364Z,13.71
2023-05-25T06:20:15.255Z,13.71
2023-05-25T06:20:57.501Z,13.80
2023-05-25T06:21:39.169Z,13.65
2023-05-25T06:22:22.021Z,13.76
2023-05-25T06:23:09.168Z,13.81
2023-05-25T06:23:52.413Z,13.81
2023-05-25T06:24:34.175Z,13.85
2023-05-25T06:25:16.558Z,13.88
2023-05-25T06:26:03.962Z,13.89
2023-05-25T06:26:45.668Z,13.99
2023-05-25T06:27:28.661Z,13.99
2023-05-25T06:28:10.534Z,14.13
2023-05-25T06:28:55.369Z,14.22
2023-05-25T06:29:42.778Z,14.32
2023-05-25T06:30:27.678Z,14.35
2023-05-25T06:31:09.487Z,14.36
2023-05-25T06:31:51.355Z,14.27
2023-05-25T06:32:35.139Z,14.29
2023-05-25T06:33:16.860Z,14.23
2023-05-25T06:33:58.763Z,14.35
2023-05-25T06:34:40.523Z,14.12
2023-05-25T06:35:25.829Z,14.22
2023-05-25T06:36:08.818Z,14.37
2023-05-25T06:36:50.594Z,14.31
2023-05-25T06:37:35.277Z,14.32
2023-05-25T06:38:18.350Z,14.40
2023-05-25T06:39:00.015Z,14.46
2023-05-25T06:39:43.258Z,14.50
2023-05-25T06:40:25.708Z,14.58
2023-05-25T06:41:09.498Z,14.64
2023-05-25T06:41:51.389Z,14.63
2023-05-25T06:42:42.680Z,14.66
2023-05-25T06:43:42.982Z,14.60
2023-05-25T06:44:29.412Z,14.79
2023-05-25T06:45:13.864Z,14.77
2023-05-25T06:45:58.575Z,14.87
2023-05-25T06:46:40.300Z,14.80
2023-05-25T06:47:23.698Z,14.72
2023-05-25T06:48:05.700Z,14.72
2023-05-25T06:48:50.847Z,14.50
2023-05-25T06:49:32.720Z,14.72
2023-05-25T06:50:14.328Z,14.69
2023-05-25T06:50:56.172Z,14.69
2023-05-25T06:51:40.798Z,14.80
2023-05-25T06:52:22.566Z,14.90
2023-05-25T06:53:04.218Z,14.91
2023-05-25T06:53:46.321Z,14.95
2023-05-25T06:54:27.982Z,14.96
2023-05-25T06:55:11.421Z,15.07
2023-05-25T06:55:53.213Z,15.13
2023-05-25T06:56:34.880Z,15.19
2023-05-25T06:57:16.526Z,15.19
2023-05-25T06:58:00.803Z,15.16
2023-05-25T06:58:42.454Z,15.24
2023-05-25T06:59:24.145Z,15.48
2023-05-25T07:00:07.724Z,15.55
2023-05-25T07:00:51.162Z,15.60
2023-05-25T07:01:32.914Z,15.61
2023-05-25T07:02:14.569Z,15.73
2023-05-25T07:02:56.251Z,15.54
2023-05-25T07:03:40.475Z,15.65
2023-05-25T07:04:23.181Z,15.61
2023-05-25T07:05:08.274Z,15.72
2023-05-25T07:05:50.095Z,15.71
2023-05-25T07:06:37.366Z,15.79
2023-05-25T07:07:19.149Z,15.86
2023-05-25T07:08:00.844Z,15.93
2023-05-25T07:08:42.589Z,15.97
2023-05-25T07:09:26.932Z,15.96
2023-05-25T07:10:09.250Z,15.82
2023-05-25T07:10:53.098Z,16.21
2023-05-25T07:11:34.830Z,16.37
2023-05-25T07:12:16.551Z,16.34
2023-05-25T07:12:58.195Z,16.41
2023-05-25T07:13:42.582Z,16.49
2023-05-25T07:14:24.250Z,16.52
2023-05-25T07:15:06.760Z,16.42
2023-05-25T07:15:48.871Z,16.68
2023-05-25T07:16:31.999Z,16.78
2023-05-25T07:17:17.519Z,16.87
2023-05-25T07:17:59.238Z,16.87
2023-05-25T07:18:41.868Z,16.87
2023-05-25T07:19:23.552Z,16.89
2023-05-25T07:20:08.826Z,17.02
2023-05-25T07:20:51.463Z,17.09
2023-05-25T07:21:38.321Z,17.05
2023-05-25T07:22:20.256Z,17.17
2023-05-25T07:23:01.914Z,17.16
2023-05-25T07:23:43.618Z,17.29
2023-05-25T07:24:25.437Z,17.32
2023-05-25T07:25:07.517Z,16.96
2023-05-25T07:25:49.759Z,17.06
2023-05-25T07:26:34.681Z,17.01
2023-05-25T07:27:16.567Z,17.00
2023-05-25T07:27:58.283Z,17.09
2023-05-25T07:28:39.949Z,17.17
2023-05-25T07:29:21.801Z,17.09
2023-05-25T07:30:07.330Z,17.23
2023-05-25T07:30:52.117Z,17.17
2023-05-25T07:31:33.900Z,17.36
2023-05-25T07:32:15.835Z,17.34
2023-05-25T07:32:58.262Z,17.33
2023-05-25T07:33:39.987Z,17.41
2023-05-25T07:34:21.683Z,17.30
2023-05-25T07:35:03.551Z,17.48
2023-05-25T07:35:45.601Z,17.55
2023-05-25T07:36:27.704Z,17.67
2023-05-25T07:37:09.399Z,17.68
2023-05-25T07:37:57.975Z,17.74
2023-05-25T07:38:39.915Z,17.86
2023-05-25T07:39:21.720Z,17.82
2023-05-25T07:40:03.871Z,17.69
2023-05-25T07:40:47.334Z,17.59
2023-05-25T07:41:28.978Z,17.42
2023-05-25T07:42:11.309Z,17.55
2023-05-25T07:42:53.538Z,17.57
2023-05-25T07:43:35.451Z,17.63
2023-05-25T07:44:17.102Z,17.72
2023-05-25T07:45:02.430Z,17.74
2023-05-25T07:45:44.458Z,17.84
2023-05-25T07:46:26.562Z,17.93
2023-05-25T07:47:08.319Z,18.01
2023-05-25T07:47:50.202Z,18.02
2023-05-25T07:48:31.893Z,18.09
2023-05-25T07:49:16.202Z,18.05
2023-05-25T07:49:57.977Z,17.98
2023-05-25T07:50:39.596Z,18.31
2023-05-25T07:51:23.317Z,18.41
2023-05-25T07:52:06.030Z,18.24
2023-05-25T07:52:50.269Z,18.45
2023-05-25T07:53:31.916Z,18.57
2023-05-25T07:54:16.474Z,18.56
2023-05-25T07:54:58.247Z,18.59
2023-05-25T07:55:39.998Z,18.38
2023-05-25T07:56:30.552Z,18.18
2023-05-25T07:57:23.092Z,18.12
2023-05-25T07:58:14.122Z,18.08
2023-05-25T07:59:04.988Z,18.20
2023-05-25T07:59:46.728Z,18.15
2023-05-25T08:00:28.398Z,18.34
2023-05-25T08:01:10.177Z,18.26
2023-05-25T08:01:52.149Z,18.24
2023-05-25T08:02:35.376Z,18.19
2023-05-25T08:03:17.864Z,18.31
2023-05-25T08:03:59.942Z,18.43
2023-05-25T08:04:44.776Z,18.57
2023-05-25T08:05:26.949Z,18.74
2023-05-25T08:06:08.690Z,18.83
2023-05-25T08:06:50.512Z,18.86
2023-05-25T08:07:35.214Z,18.87
2023-05-25T08:08:16.923Z,19.06
2023-05-25T08:09:03.905Z,19.14
2023-05-25T08:09:45.771Z,19.25
2023-05-25T08:10:32.018Z,19.36
2023-05-25T08:11:15.518Z,19.40
2023-05-25T08:12:12.656Z,19.36
2023-05-25T08:12:59.297Z,19.22
2023-05-25T08:13:41.095Z,19.22
2023-05-25T08:14:23.874Z,19.47
2023-05-25T08:15:06.123Z,19.49
2023-05-25T08:15:49.639Z,19.44
2023-05-25T08:16:34.139Z,19.36
2023-05-25T08:17:15.995Z,19.52
2023-05-25T08:17:59.224Z,19.70
2023-05-25T08:18:44.090Z,19.67
2023-05-25T08:19:31.209Z,19.61
2023-05-25T08:20:14.147Z,19.69
2023-05-25T08:20:55.988Z,19.48
2023-05-25T08:21:38.473Z,19.84
2023-05-25T08:22:22.753Z,19.84
2023-05-25T08:23:04.879Z,19.97
2023-05-25T08:23:46.638Z,19.96
2023-05-25T08:24:31.331Z,19.96
2023-05-25T08:25:13.096Z,20.00
2023-05-25T08:25:54.859Z,19.90
2023-05-25T08:26:52.892Z,19.89
2023-05-25T08:27:36.744Z,19.76
2023-05-25T08:28:20.848Z,19.88
2023-05-25T08:29:06.788Z,19.81
2023-05-25T08:29:48.517Z,19.78
2023-05-25T08:30:30.878Z,19.80
2023-05-25T08:31:12.648Z,19.87
2023-05-25T08:31:54.379Z,19.91
2023-05-25T08:32:36.266Z,20.00
2023-05-25T08:33:20.287Z,20.14
2023-05-25T08:34:02.025Z,20.19
2023-05-25T08:34:46.212Z,20.15
2023-05-25T08:35:27.895Z,20.25
2023-05-25T08:36:09.626Z,20.31
2023-05-25T08:36:54.222Z,20.24
2023-05-25T08:37:35.883Z,20.00
2023-05-25T08:38:17.684Z,20.00
2023-05-25T08:38:59.394Z,19.88
2023-05-25T08:39:41.161Z,19.91
2023-05-25T08:40:28.226Z,20.04
2023-05-25T08:41:12.240Z,20.21
2023-05-25T08:41:54.042Z,20.32
2023-05-25T08:42:38.817Z,20.42
2023-05-25T08:43:23.167Z,20.60
2023-05-25T08:44:08.074Z,20.63
2023-05-25T08:44:50.105Z,20.57
2023-05-25T08:45:35.236Z,20.65
2023-05-25T08:46:29.386Z,20.61
2023-05-25T08:47:15.122Z,20.78
2023-05-25T08:48:01.416Z,20.81
2023-05-25T08:48:45.147Z,20.77
2023-05-25T08:49:28.628Z,20.97
2023-05-25T08:50:11.606Z,20.93
2023-05-25T08:50:54.600Z,20.93
2023-05-25T08:51:38.252Z,20.69
2023-05-25T08:52:26.510Z,20.47
2023-05-25T08:53:11.683Z,20.48
2023-05-25T08:53:55.492Z,20.38
2023-05-25T08:54:38.143Z,20.57
2023-05-25T08:55:22.644Z,20.49
2023-05-25T08:56:11.857Z,20.74
2023-05-25T08:56:59.895Z,20.84
2023-05-25T08:57:54.571Z,20.85
2023-05-25T08:58:43.516Z,20.64
2023-05-25T08:59:36.774Z,20.35
2023-05-25T09:00:22.148Z,20.08
2023-05-25T09:01:08.011Z,20.38
2023-05-25T09:01:56.280Z,20.41
2023-05-25T09:02:51.009Z,20.59
2023-05-25T09:03:33.758Z,20.74
2023-05-25T09:04:19.449Z,20.91
2023-05-25T09:05:02.152Z,20.87
2023-05-25T09:05:50.360Z,20.93
2023-05-25T09:06:33.899Z,20.74
2023-05-25T09:07:16.160Z,20.66
2023-05-25T09:07:58.904Z,20.27
2023-05-25T09:08:40.765Z,20.38
2023-05-25T09:09:22.608Z,20.49
2023-05-25T09:10:05.115Z,20.63
2023-05-25T09:10:49.820Z,20.72
2023-05-25T09:11:39.349Z,20.90
2023-05-25T09:12:23.785Z,21.14
2023-05-25T09:13:19.769Z,21.33
2023-05-25T09:14:03.155Z,21.47
2023-05-25T09:14:48.156Z,21.65
2023-05-25T09:15:33.785Z,21.76
2023-05-25T09:16:16.349Z,21.83
2023-05-25T09:17:01.333Z,21.73
2023-05-25T09:17:43.176Z,21.72
2023-05-25T09:18:24.935Z,21.69
2023-05-25T09:19:06.671Z,21.68
2023-05-25T09:19:51.082Z,21.67
2023-05-25T09:20:32.985Z,21.65
2023-05-25T09:21:14.727Z,21.42
2023-05-25T09:22:03.215Z,21.25
2023-05-25T09:22:55.483Z,21.51
2023-05-25T09:23:37.615Z,21.60
2023-05-25T09:24:22.296Z,21.55